createdAt,value
2018-05-27T00:00:49.317Z,18.30
2018-05-27T00:03:18.334Z,18.10
2018-05-27T00:05:46.589Z,18.10
2018-05-27T00:08:15.608Z,17.80
2018-05-27T00:10:43.859Z,17.80
2018-05-27T00:13:12.878Z,17.90
2018-05-27T00:15:41.171Z,17.90
2018-05-27T00:18:09.407Z,17.80
2018-05-27T00:20:37.702Z,17.80
2018-05-27T00:23:05.948Z,17.80
2018-05-27T00:25:34.981Z,17.60
2018-05-27T00:28:03.237Z,17.60
2018-05-27T00:30:31.490Z,17.50
2018-05-27T00:33:00.506Z,17.60
2018-05-27T00:35:28.799Z,17.50
2018-05-27T00:37:57.048Z,17.50
2018-05-27T00:40:26.072Z,17.60
2018-05-27T00:42:54.344Z,17.60
2018-05-27T00:45:22.585Z,17.60
2018-05-27T00:47:51.608Z,17.60
2018-05-27T00:50:19.878Z,17.60
2018-05-27T00:52:48.149Z,17.60
2018-05-27T00:55:16.406Z,17.50
2018-05-27T00:57:45.455Z,17.10
2018-05-27T01:00:14.474Z,17.10
2018-05-27T01:02:42.743Z,17.10
2018-05-27T01:05:11.007Z,17.10
2018-05-27T01:07:39.279Z,16.90
2018-05-27T01:10:07.553Z,16.70
2018-05-27T01:12:35.812Z,16.60
2018-05-27T01:15:04.109Z,16.60
2018-05-27T01:17:32.366Z,16.70
2018-05-27T01:20:00.630Z,16.70
2018-05-27T01:22:28.946Z,16.70
2018-05-27T01:24:57.190Z,16.70
2018-05-27T01:27:25.463Z,16.80
2018-05-27T01:29:53.748Z,16.60
2018-05-27T01:32:22.024Z,16.70
2018-05-27T01:34:50.276Z,16.90
2018-05-27T01:37:18.590Z,17.10
2018-05-27T01:39:46.838Z,17.10
2018-05-27T01:42:15.101Z,17.00
2018-05-27T01:44:43.361Z,16.60
2018-05-27T01:47:12.393Z,16.50
2018-05-27T01:49:40.644Z,16.40
2018-05-27T01:52:08.903Z,16.50
2018-05-27T01:54:37.935Z,16.40
2018-05-27T01:57:06.195Z,16.40
2018-05-27T01:59:34.453Z,16.60
2018-05-27T02:02:03.474Z,16.50
2018-05-27T02:04:31.736Z,16.50
2018-05-27T02:07:00.017Z,16.60
2018-05-27T02:09:28.271Z,16.70
2018-05-27T02:11:57.321Z,16.30
2018-05-27T02:14:25.584Z,16.30
2018-05-27T02:16:53.838Z,16.30
2018-05-27T02:19:22.103Z,16.40
2018-05-27T02:21:50.375Z,16.40
2018-05-27T02:24:19.384Z,15.80
2018-05-27T02:26:47.669Z,15.80
2018-05-27T02:29:15.919Z,15.60
2018-05-27T02:31:44.217Z,15.40
2018-05-27T02:34:12.481Z,15.50
2018-05-27T02:36:40.737Z,15.40
2018-05-27T02:39:09.761Z,15.40
2018-05-27T02:41:38.037Z,15.30
2018-05-27T02:44:06.285Z,15.40
2018-05-27T02:46:35.338Z,15.50
2018-05-27T02:49:03.604Z,15.50
2018-05-27T02:51:31.885Z,15.50
2018-05-27T02:54:00.129Z,15.40
2018-05-27T02:56:28.386Z,15.40
2018-05-27T02:58:57.416Z,15.50
2018-05-27T03:01:25.685Z,15.50
2018-05-27T03:03:54.056Z,15.60
2018-05-27T03:06:22.317Z,15.70
2018-05-27T03:08:51.341Z,15.40
2018-05-27T03:11:19.615Z,15.40
2018-05-27T03:13:47.813Z,15.40
2018-05-27T03:16:16.019Z,15.30
2018-05-27T03:18:45.057Z,15.20
2018-05-27T03:21:13.321Z,15.20
2018-05-27T03:23:41.575Z,15.20
2018-05-27T03:26:10.617Z,15.10
2018-05-27T03:28:38.879Z,15.10
2018-05-27T03:31:07.125Z,15.20
2018-05-27T03:33:35.390Z,15.20
2018-05-27T03:36:04.416Z,15.20
2018-05-27T03:38:32.728Z,15.20
2018-05-27T03:41:00.981Z,15.30
2018-05-27T03:43:29.278Z,15.20
2018-05-27T03:45:57.496Z,15.20
2018-05-27T03:48:26.511Z,15.20
2018-05-27T03:50:54.779Z,15.20
2018-05-27T03:53:23.043Z,15.30
2018-05-27T03:55:52.076Z,15.40
2018-05-27T03:58:21.303Z,15.30
2018-05-27T04:00:51.063Z,15.40
2018-05-27T04:03:19.327Z,15.40
2018-05-27T04:05:59.579Z,15.40
2018-05-27T04:08:35.561Z,15.40
2018-05-27T04:11:03.814Z,15.40
2018-05-27T04:13:32.070Z,15.40
2018-05-27T04:16:01.116Z,15.70
2018-05-27T04:18:29.386Z,15.60
2018-05-27T04:20:57.635Z,15.80
2018-05-27T04:23:26.658Z,16.10
2018-05-27T04:25:54.932Z,16.10
2018-05-27T04:28:23.201Z,16.20
2018-05-27T04:30:51.451Z,15.80
2018-05-27T04:33:20.479Z,15.80
2018-05-27T04:35:48.753Z,15.80
2018-05-27T04:38:17.010Z,16.00
2018-05-27T04:40:45.279Z,16.40
2018-05-27T04:43:13.536Z,16.60
2018-05-27T04:45:42.562Z,16.80
2018-05-27T04:48:11.076Z,16.80
2018-05-27T04:50:39.351Z,16.70
2018-05-27T04:53:07.592Z,16.70
2018-05-27T04:55:35.847Z,16.70
2018-05-27T04:58:04.871Z,16.50
2018-05-27T05:00:33.122Z,16.40
2018-05-27T05:03:01.394Z,16.60
2018-05-27T05:05:30.419Z,16.60
2018-05-27T05:07:58.691Z,16.60
2018-05-27T05:10:26.971Z,16.80
2018-05-27T05:12:55.212Z,17.00
2018-05-27T05:15:24.249Z,17.50
2018-05-27T05:17:52.510Z,17.50
2018-05-27T05:20:20.782Z,17.70
2018-05-27T05:22:49.044Z,17.50
2018-05-27T05:25:18.067Z,17.50
2018-05-27T05:27:46.340Z,17.50
2018-05-27T05:30:14.580Z,17.30
2018-05-27T05:32:42.849Z,17.70
2018-05-27T05:35:11.881Z,18.00
2018-05-27T05:37:40.143Z,18.00
2018-05-27T05:40:08.399Z,18.50
2018-05-27T05:42:37.429Z,19.20
2018-05-27T05:45:05.668Z,19.10
2018-05-27T05:47:34.690Z,18.00
2018-05-27T05:50:02.939Z,18.00
2018-05-27T05:52:31.974Z,17.50
2018-05-27T05:55:00.232Z,17.50
2018-05-27T05:57:28.538Z,17.60
2018-05-27T05:59:56.789Z,17.60
2018-05-27T06:02:25.041Z,17.80
2018-05-27T06:04:53.317Z,17.80
2018-05-27T06:07:22.388Z,17.60
2018-05-27T06:09:50.598Z,17.60
2018-05-27T06:12:18.859Z,17.50
2018-05-27T06:14:47.882Z,17.60
2018-05-27T06:17:16.151Z,17.60
2018-05-27T06:19:44.405Z,17.80
2018-05-27T06:22:13.449Z,17.70
2018-05-27T06:24:41.705Z,17.70
2018-05-27T06:27:09.981Z,17.90
2018-05-27T06:29:38.237Z,18.00
2018-05-27T06:32:06.605Z,18.30
2018-05-27T06:34:34.796Z,18.30
2018-05-27T06:37:03.055Z,18.60
2018-05-27T06:39:32.050Z,18.90
2018-05-27T06:42:01.071Z,19.30
2018-05-27T06:44:29.331Z,19.30
2018-05-27T06:46:57.583Z,19.50
2018-05-27T06:49:26.600Z,19.60
2018-05-27T06:51:54.886Z,19.60
2018-05-27T06:54:23.162Z,20.10
2018-05-27T06:56:51.414Z,20.50
2018-05-27T06:59:20.433Z,21.00
2018-05-27T07:01:48.735Z,21.00
2018-05-27T07:04:16.980Z,20.60
2018-05-27T07:06:45.274Z,20.80
2018-05-27T07:09:13.499Z,21.10
2018-05-27T07:11:42.547Z,21.10
2018-05-27T07:14:10.794Z,21.10
2018-05-27T07:16:39.041Z,20.60
2018-05-27T07:19:08.062Z,21.10
2018-05-27T07:21:36.325Z,21.10
2018-05-27T07:24:05.364Z,21.00
2018-05-27T07:26:33.611Z,20.90
2018-05-27T07:29:01.869Z,21.20
2018-05-27T07:31:30.892Z,22.10
2018-05-27T07:33:59.141Z,22.00
2018-05-27T07:36:28.175Z,22.40
2018-05-27T07:38:56.438Z,22.40
2018-05-27T07:41:24.688Z,22.70
2018-05-27T07:43:53.691Z,22.60
2018-05-27T07:46:21.948Z,22.60
2018-05-27T07:48:50.973Z,23.20
2018-05-27T07:51:19.223Z,23.10
2018-05-27T07:53:48.271Z,23.20
2018-05-27T07:56:16.510Z,23.20
2018-05-27T07:58:44.771Z,24.20
2018-05-27T08:01:13.020Z,24.40
2018-05-27T08:03:41.268Z,24.30
2018-05-27T08:06:09.530Z,24.00
2018-05-27T08:08:37.787Z,23.70
2018-05-27T08:11:06.080Z,23.90
2018-05-27T08:13:34.337Z,23.90
2018-05-27T08:16:02.657Z,23.30
2018-05-27T08:18:30.908Z,23.00
2018-05-27T08:20:59.157Z,23.30
2018-05-27T08:23:27.420Z,23.20
2018-05-27T08:25:56.452Z,23.40
2018-05-27T08:28:24.705Z,23.40
2018-05-27T08:30:52.964Z,23.40
2018-05-27T08:33:21.206Z,24.20
2018-05-27T08:35:50.253Z,24.60
2018-05-27T08:38:18.495Z,24.60
2018-05-27T08:40:47.532Z,23.50
2018-05-27T08:43:15.938Z,23.50
2018-05-27T08:45:44.209Z,24.00
2018-05-27T08:48:12.456Z,25.10
2018-05-27T08:50:40.707Z,25.70
2018-05-27T08:53:09.714Z,26.10
2018-05-27T08:55:37.962Z,26.10
2018-05-27T08:58:06.209Z,26.10
2018-05-27T09:00:34.459Z,26.30
2018-05-27T09:03:02.718Z,26.40
2018-05-27T09:05:31.746Z,27.00
2018-05-27T09:08:00.004Z,26.90
2018-05-27T09:10:28.253Z,26.30
2018-05-27T09:12:57.260Z,27.00
2018-05-27T09:15:25.597Z,26.90
2018-05-27T09:17:54.560Z,26.80
2018-05-27T09:20:22.829Z,26.80
2018-05-27T09:22:51.078Z,26.70
2018-05-27T09:25:19.346Z,26.60
2018-05-27T09:27:48.357Z,26.90
2018-05-27T09:30:16.608Z,26.80
2018-05-27T09:32:45.654Z,26.50
2018-05-27T09:35:13.906Z,26.50
2018-05-27T09:37:42.246Z,26.20
2018-05-27T09:40:11.273Z,26.40
2018-05-27T09:42:39.530Z,26.30
2018-05-27T09:45:08.553Z,26.30
2018-05-27T09:47:36.808Z,26.30
2018-05-27T09:50:05.054Z,26.80
2018-05-27T09:52:33.301Z,26.70
2018-05-27T09:55:01.554Z,26.70
2018-05-27T09:57:29.804Z,27.40
2018-05-27T09:59:58.920Z,26.90
2018-05-27T10:02:27.161Z,27.30
2018-05-27T10:04:56.248Z,27.60
2018-05-27T10:07:24.481Z,27.60
2018-05-27T10:09:53.498Z,27.00
2018-05-27T10:12:21.779Z,26.90
2018-05-27T10:14:50.031Z,27.10
2018-05-27T10:17:18.277Z,27.60
2018-05-27T10:19:46.530Z,27.10
2018-05-27T10:22:15.553Z,27.40
2018-05-27T10:24:43.836Z,27.40
2018-05-27T10:27:12.073Z,27.90
2018-05-27T10:29:41.093Z,26.50
2018-05-27T10:32:09.340Z,26.50
2018-05-27T10:34:38.354Z,26.00
2018-05-27T10:37:06.637Z,25.90
2018-05-27T10:39:35.649Z,27.90
2018-05-27T10:42:04.159Z,27.90
2018-05-27T10:44:32.395Z,28.50
2018-05-27T10:47:00.651Z,28.30
2018-05-27T10:49:29.670Z,28.20
2018-05-27T10:51:57.917Z,28.20
2018-05-27T10:54:26.946Z,28.70
2018-05-27T10:56:55.194Z,28.70
2018-05-27T10:59:23.458Z,28.80
2018-05-27T11:01:52.488Z,28.60
2018-05-27T11:04:20.750Z,28.60
2018-05-27T11:06:49.028Z,29.70
2018-05-27T11:09:17.276Z,29.10
2018-05-27T11:11:46.306Z,28.90
2018-05-27T11:14:14.621Z,28.90
2018-05-27T11:16:42.928Z,29.20
2018-05-27T11:19:11.173Z,29.40
2018-05-27T11:21:39.416Z,29.50
2018-05-27T11:24:08.457Z,30.20
2018-05-27T11:26:37.491Z,30.80
2018-05-27T11:29:05.768Z,30.70
2018-05-27T11:31:34.812Z,29.80
2018-05-27T11:34:03.051Z,29.40
2018-05-27T11:36:31.321Z,29.10
2018-05-27T11:38:59.565Z,29.70
2018-05-27T11:41:28.615Z,29.80
2018-05-27T11:43:57.022Z,29.80
2018-05-27T11:46:25.271Z,30.10
2018-05-27T11:48:53.543Z,30.40
2018-05-27T11:51:21.791Z,31.20
2018-05-27T11:53:50.034Z,30.90
2018-05-27T11:56:19.037Z,31.90
2018-05-27T11:58:47.319Z,31.90
2018-05-27T12:01:16.331Z,30.20
2018-05-27T12:03:44.582Z,30.20
2018-05-27T12:06:13.611Z,30.60
2018-05-27T12:08:41.859Z,30.60
2018-05-27T12:11:10.121Z,31.90
2018-05-27T12:13:39.146Z,30.70
2018-05-27T12:16:07.398Z,30.70
2018-05-27T12:18:35.667Z,30.00
2018-05-27T12:21:04.688Z,30.20
2018-05-27T12:23:32.972Z,30.20
2018-05-27T12:26:01.215Z,30.40
2018-05-27T12:28:30.276Z,29.20
2018-05-27T12:30:58.549Z,29.20
2018-05-27T12:33:26.781Z,29.00
2018-05-27T12:35:55.050Z,28.70
2018-05-27T12:38:23.347Z,29.40
2018-05-27T12:40:51.612Z,29.60
2018-05-27T12:43:19.854Z,30.10
2018-05-27T12:45:48.895Z,29.20
2018-05-27T12:48:17.130Z,29.30
2018-05-27T12:50:46.206Z,28.40
2018-05-27T12:53:14.459Z,28.30
2018-05-27T12:55:42.709Z,28.30
2018-05-27T12:58:10.961Z,28.60
2018-05-27T13:00:39.979Z,28.70
2018-05-27T13:03:08.256Z,28.70
2018-05-27T13:05:36.511Z,29.40
2018-05-27T13:08:04.769Z,29.40
2018-05-27T13:10:33.851Z,28.80
2018-05-27T13:13:02.198Z,28.80
2018-05-27T13:15:30.448Z,28.70
2018-05-27T13:17:58.743Z,28.60
2018-05-27T13:20:27.053Z,28.60
2018-05-27T13:22:55.342Z,28.40
2018-05-27T13:25:24.355Z,28.40
2018-05-27T13:27:52.627Z,28.20
2018-05-27T13:30:21.681Z,28.20
2018-05-27T13:32:49.966Z,28.10
2018-05-27T13:35:18.249Z,28.60
2018-05-27T13:37:46.566Z,28.60
2018-05-27T13:40:14.809Z,28.70
2018-05-27T13:42:43.827Z,28.40
2018-05-27T13:45:12.871Z,28.40
2018-05-27T13:47:42.468Z,29.00
2018-05-27T13:50:10.719Z,28.90
2018-05-27T13:52:38.982Z,28.60
2018-05-27T13:55:07.222Z,28.40
2018-05-27T13:57:36.258Z,29.00
2018-05-27T14:00:04.516Z,29.00
2018-05-27T14:02:33.571Z,29.00
2018-05-27T14:05:01.817Z,29.00
2018-05-27T14:07:30.061Z,29.40
2018-05-27T14:09:59.096Z,29.40
2018-05-27T14:12:27.330Z,29.40
2018-05-27T14:14:55.619Z,29.10
2018-05-27T14:17:23.890Z,29.20
2018-05-27T14:19:52.160Z,29.70
2018-05-27T14:22:20.400Z,29.40
2018-05-27T14:24:48.705Z,29.20
2018-05-27T14:27:17.797Z,29.50
2018-05-27T14:29:46.807Z,29.70
2018-05-27T14:32:15.085Z,29.70
2018-05-27T14:34:43.313Z,29.70
2018-05-27T14:39:46.073Z,29.20
2018-05-27T14:42:14.576Z,28.50
2018-05-27T14:44:42.814Z,28.70
2018-05-27T14:47:11.846Z,29.80
2018-05-27T14:49:40.110Z,29.70
2018-05-27T14:52:08.359Z,30.00
2018-05-27T14:54:37.404Z,30.30
2018-05-27T14:57:05.654Z,30.20
2018-05-27T14:59:34.906Z,29.30
2018-05-27T15:02:03.910Z,28.30
2018-05-27T15:04:33.037Z,28.60
2018-05-27T15:07:01.296Z,28.60
2018-05-27T15:09:29.550Z,28.50
2018-05-27T15:11:58.595Z,27.30
2018-05-27T15:14:26.910Z,27.30
2018-05-27T15:16:55.198Z,28.10
2018-05-27T15:19:24.205Z,29.60
2018-05-27T15:21:52.483Z,29.60
2018-05-27T15:24:20.746Z,29.50
2018-05-27T15:26:49.756Z,28.50
2018-05-27T15:29:18.002Z,28.50
2018-05-27T15:31:47.043Z,28.80
2018-05-27T15:34:15.320Z,28.80
2018-05-27T15:36:43.592Z,28.50
2018-05-27T15:39:11.866Z,28.60
2018-05-27T15:41:40.110Z,28.60
2018-05-27T15:44:09.139Z,28.70
2018-05-27T15:46:37.434Z,28.70
2018-05-27T15:49:05.739Z,28.90
2018-05-27T15:51:33.981Z,28.90
2018-05-27T15:54:02.997Z,28.30
2018-05-27T15:56:31.253Z,28.30
2018-05-27T15:58:59.502Z,27.80
2018-05-27T16:01:27.763Z,27.70
2018-05-27T16:03:56.797Z,28.80
2018-05-27T16:06:25.035Z,28.80
2018-05-27T16:08:53.281Z,28.20
2018-05-27T16:11:22.298Z,27.10
2018-05-27T16:13:50.552Z,27.10
2018-05-27T16:16:18.800Z,27.20
2018-05-27T16:18:47.078Z,27.20
2018-05-27T16:21:15.349Z,27.50
2018-05-27T16:23:43.606Z,27.40
2018-05-27T16:28:45.472Z,27.10
2018-05-27T16:31:13.908Z,27.10
2018-05-27T16:33:42.337Z,27.00
2018-05-27T16:36:10.667Z,27.00
2018-05-27T16:38:39.678Z,26.90
2018-05-27T16:41:08.701Z,26.90
2018-05-27T16:43:36.949Z,26.90
2018-05-27T16:46:05.959Z,26.80
2018-05-27T16:48:34.214Z,26.80
2018-05-27T16:51:02.490Z,27.00
2018-05-27T16:53:31.581Z,26.90
2018-05-27T16:56:00.698Z,26.90
2018-05-27T16:58:29.311Z,26.90
2018-05-27T17:00:58.512Z,27.00
2018-05-27T17:03:26.760Z,26.80
2018-05-27T17:05:55.059Z,26.80
2018-05-27T17:08:23.343Z,26.60
2018-05-27T17:10:51.602Z,26.50
2018-05-27T17:13:19.847Z,26.40
2018-05-27T17:15:48.110Z,26.30
2018-05-27T17:18:17.135Z,26.20
2018-05-27T17:20:45.417Z,26.20
2018-05-27T17:23:13.708Z,26.30
2018-05-27T17:25:41.948Z,26.10
2018-05-27T17:28:10.258Z,25.90
2018-05-27T17:30:39.238Z,25.80
2018-05-27T17:33:07.495Z,25.70
2018-05-27T17:35:35.765Z,25.70
2018-05-27T17:38:04.102Z,25.60
2018-05-27T17:40:32.360Z,25.60
2018-05-27T17:43:00.617Z,25.20
2018-05-27T17:45:28.938Z,25.10
2018-05-27T17:48:10.443Z,24.80
2018-05-27T17:50:39.694Z,24.70
2018-05-27T17:53:07.952Z,24.70
2018-05-27T17:55:36.218Z,24.60
2018-05-27T17:58:04.463Z,24.60
2018-05-27T18:00:33.508Z,24.30
2018-05-27T18:03:01.765Z,24.30
2018-05-27T18:05:30.068Z,24.20
2018-05-27T18:07:58.318Z,24.20
2018-05-27T18:10:26.580Z,24.10
2018-05-27T18:12:54.848Z,24.10
2018-05-27T18:15:23.097Z,24.00
2018-05-27T18:17:51.437Z,23.90
2018-05-27T18:20:19.682Z,23.90
2018-05-27T18:22:47.953Z,23.80
2018-05-27T18:25:16.992Z,23.70
2018-05-27T18:27:45.245Z,23.70
2018-05-27T18:30:13.502Z,23.60
2018-05-27T18:32:41.763Z,23.60
2018-05-27T18:35:10.795Z,23.60
2018-05-27T18:37:39.108Z,23.60
2018-05-27T18:40:07.365Z,23.50
2018-05-27T18:42:35.618Z,23.50
2018-05-27T18:45:03.919Z,23.40
2018-05-27T18:47:32.201Z,23.20
2018-05-27T18:50:00.436Z,23.30
2018-05-27T18:52:28.728Z,23.20
2018-05-27T18:54:57.017Z,23.10
2018-05-27T18:57:26.805Z,22.80
2018-05-27T18:59:55.111Z,22.80
2018-05-27T19:02:23.400Z,22.80
2018-05-27T19:04:51.728Z,22.70
2018-05-27T19:07:19.996Z,22.70
2018-05-27T19:09:49.010Z,22.50
2018-05-27T19:12:17.292Z,22.40
2018-05-27T19:14:45.667Z,22.30
2018-05-27T19:17:13.914Z,22.30
2018-05-27T19:19:42.204Z,22.00
2018-05-27T19:22:10.472Z,22.00
2018-05-27T19:24:38.742Z,21.80
2018-05-27T19:27:07.019Z,21.70
2018-05-27T19:29:36.032Z,21.30
2018-05-27T19:32:04.275Z,21.30
2018-05-27T19:34:33.294Z,20.90
2018-05-27T19:37:01.544Z,20.90
2018-05-27T19:39:30.681Z,20.70
2018-05-27T19:41:58.941Z,20.70
2018-05-27T19:44:27.212Z,20.70
2018-05-27T19:46:55.479Z,20.60
2018-05-27T19:49:23.737Z,20.50
2018-05-27T19:51:52.777Z,20.40
2018-05-27T19:54:21.037Z,20.40
2018-05-27T19:56:49.298Z,20.30
2018-05-27T19:59:17.616Z,20.20
2018-05-27T20:01:45.869Z,20.00
2018-05-27T20:04:14.132Z,19.90
2018-05-27T20:06:42.413Z,19.90
2018-05-27T20:09:10.700Z,19.90
2018-05-27T20:11:38.961Z,20.00
2018-05-27T20:14:07.221Z,19.70
2018-05-27T20:16:36.295Z,19.70
2018-05-27T20:19:06.046Z,19.80
2018-05-27T20:21:34.367Z,19.80
2018-05-27T20:24:02.627Z,19.90
2018-05-27T20:26:30.899Z,19.70
2018-05-27T20:28:59.173Z,19.50
2018-05-27T20:31:27.483Z,19.20
2018-05-27T20:33:55.728Z,19.20
2018-05-27T20:36:23.990Z,19.20
2018-05-27T20:38:52.271Z,19.20
2018-05-27T20:41:20.531Z,19.10
2018-05-27T20:43:48.784Z,19.10
2018-05-27T20:46:17.831Z,19.10
2018-05-27T20:48:46.076Z,19.00
2018-05-27T20:51:14.373Z,19.00
2018-05-27T20:53:42.635Z,18.90
2018-05-27T20:56:10.899Z,18.90
2018-05-27T20:58:39.176Z,18.90
2018-05-27T21:01:07.504Z,19.00
2018-05-27T21:03:35.781Z,18.90
2018-05-27T21:06:04.036Z,18.70
2018-05-27T21:08:32.281Z,18.70
2018-05-27T21:11:00.585Z,18.80
2018-05-27T21:13:28.869Z,18.90
2018-05-27T21:15:57.130Z,18.90
2018-05-27T21:18:25.379Z,18.80
2018-05-27T21:20:53.646Z,18.50
2018-05-27T21:23:21.919Z,18.60
2018-05-27T21:25:50.935Z,18.50
2018-05-27T21:28:19.213Z,18.50
2018-05-27T21:30:47.559Z,18.60
2018-05-27T21:33:16.719Z,18.30
2018-05-27T21:35:45.021Z,18.30
2018-05-27T21:38:13.264Z,18.20
2018-05-27T21:40:41.557Z,18.20
2018-05-27T21:43:09.804Z,18.20
2018-05-27T21:45:38.089Z,18.30
2018-05-27T21:48:06.325Z,18.20
2018-05-27T21:50:34.576Z,18.20
2018-05-27T21:53:03.628Z,18.20
2018-05-27T21:55:31.885Z,18.20
2018-05-27T21:58:00.167Z,18.10
2018-05-27T22:00:28.425Z,18.00
2018-05-27T22:02:57.467Z,17.90
2018-05-27T22:05:25.703Z,17.90
2018-05-27T22:07:53.977Z,17.90
2018-05-27T22:10:22.286Z,17.90
2018-05-27T22:12:50.544Z,17.80
2018-05-27T22:15:18.829Z,17.80
2018-05-27T22:17:47.096Z,17.80
2018-05-27T22:20:15.365Z,17.90
2018-05-27T22:22:43.626Z,17.90
2018-05-27T22:25:11.900Z,17.90
2018-05-27T22:27:40.151Z,17.90
2018-05-27T22:30:09.180Z,18.00
2018-05-27T22:35:15.397Z,18.10
2018-05-27T22:37:43.879Z,18.00
2018-05-27T22:40:12.142Z,18.10
2018-05-27T22:42:41.195Z,18.10
2018-05-27T22:45:10.251Z,17.90
2018-05-27T22:47:38.508Z,17.90
2018-05-27T22:50:06.759Z,17.80
2018-05-27T22:52:35.021Z,17.80
2018-05-27T22:55:03.283Z,17.80
2018-05-27T22:57:32.317Z,17.70
2018-05-27T23:00:00.590Z,17.70
2018-05-27T23:02:28.858Z,17.80
2018-05-27T23:04:57.122Z,17.90
2018-05-27T23:07:25.419Z,18.00
2018-05-27T23:09:53.758Z,18.00
2018-05-27T23:12:22.809Z,17.90
2018-05-27T23:14:51.064Z,17.90
2018-05-27T23:17:19.333Z,17.90
2018-05-27T23:19:47.584Z,17.90
2018-05-27T23:22:16.617Z,17.90
2018-05-27T23:24:45.671Z,17.90
2018-05-27T23:27:14.689Z,17.90
2018-05-27T23:29:42.968Z,17.90
2018-05-27T23:32:11.228Z,18.00
2018-05-27T23:34:39.483Z,17.90
2018-05-27T23:37:08.516Z,17.80
2018-05-27T23:39:36.780Z,17.80
2018-05-27T23:42:05.030Z,17.80
2018-05-27T23:44:34.051Z,17.80
2018-05-27T23:47:02.306Z,17.80
2018-05-27T23:49:31.353Z,17.80
2018-05-27T23:51:59.609Z,17.80
2018-05-27T23:54:27.871Z,17.60
2018-05-27T23:56:56.175Z,17.70
2018-05-27T23:59:24.437Z,17.70
